Time;durP1;ratioP1;P1;durP2;ratioP2;P2;SDS_P1;SDS_P2;PMS_P1;PMS_P2;Temp;Humidity;BMP_temperature;BMP_pressure;BME280_temperature;BME280_humidity;BME280_pressure;Samples;Min_cycle;Max_cycle;Signal;HPM_P1;HPM_P2
2023/07/17 21:38:29;;;;;;;8.13;2.60;;;;;;;27.22;43.79;94748.50;6145645;22;1563509;-85
2023/07/17 21:40:55;;;;;;;11.45;2.20;;;;;;;27.17;43.54;94746.09;6168909;23;20000;-86
2023/07/17 21:43:21;;;;;;;11.93;3.53;;;;;;;27.10;43.92;94752.16;6168875;23;19999;-85
2023/07/17 21:45:49;;;;;;;10.68;2.53;;;;;;;27.44;42.75;94751.44;6144749;23;19996;-86
2023/07/17 21:48:25;;;;;;;;;;;;;;;;;;;;;
2023/07/17 21:50:51;;;;;;;13.90;2.33;;;;;;;27.30;42.86;94746.66;6170089;23;20075;-86
2023/07/17 21:53:16;;;;;;;12.05;2.33;;;;;;;27.25;43.87;94755.81;6141707;23;20012;-86
2023/07/17 21:55:42;;;;;;;8.38;2.13;;;;;;;27.06;44.06;94754.03;6141197;23;19993;-86
2023/07/17 21:58:07;;;;;;;10.25;2.53;;;;;;;27.22;42.81;94749.25;6165547;23;20353;-85
2023/07/17 22:00:34;;;;;;;14.25;2.50;;;;;;;27.31;43.08;94762.41;6192120;23;20008;-86
2023/07/17 22:02:59;;;;;;;11.23;2.92;;;;;;;27.15;43.67;94759.94;6164834;23;20005;-86
2023/07/17 22:05:25;;;;;;;16.48;2.60;;;;;;;27.16;43.17;94764.16;6141207;23;20083;-85
2023/07/17 22:07:50;;;;;;;9.00;2.30;;;;;;;27.19;43.16;94762.69;6165576;23;19997;-86
2023/07/17 22:10:16;;;;;;;13.95;2.40;;;;;;;27.09;43.41;94764.06;6191761;23;20028;-85
2023/07/17 22:12:42;;;;;;;14.52;2.55;;;;;;;27.10;43.35;94754.84;6164940;23;20024;-85
2023/07/17 22:15:08;;;;;;;11.85;2.42;;;;;;;27.03;43.97;94765.53;6141138;23;20139;-85
2023/07/17 22:17:33;;;;;;;11.73;2.40;;;;;;;27.08;43.25;94743.69;6165721;23;20131;-85
2023/07/17 22:19:59;;;;;;;14.05;2.67;;;;;;;27.12;43.48;94757.19;6141006;23;20095;-85
2023/07/17 22:22:25;;;;;;;13.27;2.50;;;;;;;27.24;43.44;94754.28;6165597;23;20000;-85
2023/07/17 22:24:51;;;;;;;8.02;2.30;;;;;;;27.17;43.52;94752.28;6140652;23;20394;-85
2023/07/17 22:27:18;;;;;;;8.60;2.92;;;;;;;27.14;43.68;94761.06;6140866;23;20299;-85
2023/07/17 22:29:43;;;;;;;12.02;2.58;;;;;;;27.18;43.95;94751.13;6139619;23;20056;-85
2023/07/17 22:32:09;;;;;;;17.98;3.05;;;;;;;27.18;44.33;94755.72;6158873;23;20378;-85
2023/07/17 22:34:34;;;;;;;13.02;2.42;;;;;;;27.14;44.30;94761.06;6133537;23;19996;-85
2023/07/17 22:37:00;;;;;;;7.93;2.63;;;;;;;27.15;44.08;94768.00;6159179;23;20087;-85
2023/07/17 22:39:25;;;;;;;12.65;2.78;;;;;;;27.23;44.20;94763.50;6172970;23;20469;-86
2023/07/17 22:41:51;;;;;;;14.20;2.50;;;;;;;27.22;44.66;94761.94;6158937;23;20100;-85
2023/07/17 22:44:17;;;;;;;10.95;2.45;;;;;;;27.35;44.46;94755.19;6182880;23;20000;-85
2023/07/17 22:46:43;;;;;;;22.60;3.03;;;;;;;27.35;44.78;94762.47;6183460;23;19997;-85
2023/07/17 22:49:09;;;;;;;11.70;2.63;;;;;;;27.43;44.19;94761.44;6183330;23;20004;-85
2023/07/17 22:51:40;;;;;;;11.80;2.58;;;;;;;27.19;45.04;94766.13;6159281;23;19996;-86
2023/07/17 22:54:05;;;;;;;13.20;2.55;;;;;;;27.06;45.36;94768.28;6184412;23;20033;-85
2023/07/17 22:56:31;;;;;;;12.52;2.53;;;;;;;27.12;45.54;94763.34;6158711;23;20063;-85
2023/07/17 22:58:57;;;;;;;12.57;2.95;;;;;;;27.07;46.16;94758.28;6158321;23;20009;-85
2023/07/17 23:01:22;;;;;;;8.63;2.75;;;;;;;27.15;45.61;94756.47;6158413;23;20001;-85
2023/07/17 23:03:48;;;;;;;12.18;2.65;;;;;;;27.14;45.91;94760.28;6184315;23;20326;-85
2023/07/17 23:06:13;;;;;;;12.50;2.83;;;;;;;27.15;45.85;94762.63;6183237;23;20055;-86
2023/07/17 23:08:39;;;;;;;14.18;2.83;;;;;;;27.07;46.25;94760.97;6183251;23;20140;-86
2023/07/17 23:11:04;;;;;;;10.55;3.05;;;;;;;27.24;46.36;94760.41;6183078;23;20008;-85
2023/07/17 23:13:30;;;;;;;15.05;2.85;;;;;;;27.18;46.37;94758.41;6182416;23;20528;-86
2023/07/17 23:15:56;;;;;;;7.78;2.80;;;;;;;27.44;45.76;94767.56;6185059;23;20306;-85
2023/07/17 23:18:21;;;;;;;8.40;2.72;;;;;;;27.25;46.55;94766.59;6184535;23;20009;-85
2023/07/17 23:20:47;;;;;;;13.18;3.40;;;;;;;27.21;46.61;94761.16;6158785;23;20007;-85
2023/07/17 23:23:13;;;;;;;9.80;2.80;;;;;;;27.19;46.60;94766.13;6158291;23;20011;-85
2023/07/17 23:25:44;;;;;;;11.10;3.42;;;;;;;27.18;46.88;94763.78;6184450;23;20000;-85
2023/07/17 23:28:12;;;;;;;11.55;2.90;;;;;;;27.21;46.81;94765.78;6158638;23;20119;-85
2023/07/17 23:30:40;;;;;;;13.25;2.90;;;;;;;27.20;46.58;94766.91;6183079;23;20008;-85
2023/07/17 23:33:06;;;;;;;8.98;2.80;;;;;;;27.03;47.36;94765.53;6157828;23;20011;-85
2023/07/17 23:35:32;;;;;;;9.70;2.63;;;;;;;26.96;47.72;94766.97;6158400;23;20072;-85
2023/07/17 23:37:57;;;;;;;14.27;3.22;;;;;;;27.02;47.26;94766.66;6159623;23;20036;-85
2023/07/17 23:40:23;;;;;;;16.00;3.35;;;;;;;27.22;46.75;94760.00;6163817;23;20000;-85
2023/07/17 23:42:56;;;;;;;11.93;3.28;;;;;;;27.13;46.80;94759.53;6187369;23;20007;-85
2023/07/17 23:45:23;;;;;;;10.57;2.72;;;;;;;26.99;47.52;94764.72;6163616;23;20480;-85
2023/07/17 23:47:51;;;;;;;16.08;3.20;;;;;;;27.01;47.61;94762.44;6188381;23;20046;-85
2023/07/17 23:50:20;;;;;;;14.55;3.25;;;;;;;27.18;47.09;94761.88;6164156;23;20000;-85
2023/07/17 23:52:46;;;;;;;12.23;3.28;;;;;;;27.02;47.16;94756.69;6162542;23;20008;-85
2023/07/17 23:55:17;;;;;;;14.63;2.70;;;;;;;27.01;47.20;94757.06;6163587;23;20004;-85
2023/07/17 23:57:47;;;;;;;20.05;3.13;;;;;;;26.94;47.53;94749.69;6188067;23;20083;-85
